createdAt,value
2023-01-29T00:01:58.492Z,101315.19
2023-01-29T00:04:25.849Z,101312.56
2023-01-29T00:06:53.034Z,101303.84
2023-01-29T00:09:20.259Z,101305.59
2023-01-29T00:11:47.713Z,101283.81
2023-01-29T00:14:14.879Z,101298.59
2023-01-29T00:16:42.281Z,101283.03
2023-01-29T00:19:09.436Z,101285.72
2023-01-29T00:21:36.525Z,101288.97
2023-01-29T00:24:03.758Z,101287.31
2023-01-29T00:26:31.317Z,101276.22
2023-01-29T00:29:00.719Z,101276.22
2023-01-29T00:31:28.365Z,101272.53
2023-01-29T00:33:55.604Z,101252.53
2023-01-29T00:36:23.421Z,101258.72
2023-01-29T00:38:59.901Z,101261.88
2023-01-29T00:41:48.545Z,101260.25
2023-01-29T00:44:34.866Z,101248.09
2023-01-29T00:47:02.601Z,101251.72
2023-01-29T00:49:30.630Z,101257.75
2023-01-29T00:52:17.493Z,101253.34
2023-01-29T00:54:44.553Z,101241.25
2023-01-29T00:57:11.663Z,101255.06
2023-01-29T00:59:38.966Z,101258.41
2023-01-29T01:02:24.503Z,101262.69
2023-01-29T01:04:51.691Z,101233.59
2023-01-29T01:07:18.767Z,101263.94
2023-01-29T01:10:04.384Z,101278.47
2023-01-29T01:12:32.289Z,101283.63
2023-01-29T01:14:59.348Z,101271.72
2023-01-29T01:17:26.602Z,101263.47
2023-01-29T01:19:53.998Z,101263.81
2023-01-29T01:22:21.114Z,101260.47
2023-01-29T01:24:48.588Z,101255.53
2023-01-29T01:27:15.804Z,101260.81
2023-01-29T01:29:43.046Z,101247.16
2023-01-29T01:32:10.205Z,101250.66
2023-01-29T01:34:37.555Z,101252.41
2023-01-29T01:37:05.004Z,101251.75
2023-01-29T01:39:32.126Z,101255.19
2023-01-29T01:41:59.286Z,101250.81
2023-01-29T01:44:52.801Z,101254.47
2023-01-29T01:47:25.322Z,101244.31
2023-01-29T01:49:54.856Z,101245.91
2023-01-29T01:52:22.278Z,101257.78
2023-01-29T01:54:51.508Z,101256.06
2023-01-29T01:57:25.349Z,101269.72
2023-01-29T01:59:58.864Z,101260.50
2023-01-29T02:02:45.193Z,101253.78
2023-01-29T02:05:32.263Z,101257.94
2023-01-29T02:08:18.659Z,101245.91
2023-01-29T02:10:48.715Z,101252.88
2023-01-29T02:13:18.101Z,101257.94
2023-01-29T02:15:51.503Z,101264.81
2023-01-29T02:18:21.694Z,101263.94
2023-01-29T02:21:15.094Z,101257.94
2023-01-29T02:24:01.836Z,101251.28
2023-01-29T02:26:52.215Z,101243.69
2023-01-29T02:29:25.602Z,101242.91
2023-01-29T02:32:02.492Z,101237.81
2023-01-29T02:35:16.612Z,101238.59
2023-01-29T02:37:55.572Z,101234.78
2023-01-29T02:40:27.509Z,101227.31
2023-01-29T02:43:05.134Z,101233.38
2023-01-29T02:45:57.486Z,101223.81
2023-01-29T02:48:28.345Z,101215.44
2023-01-29T02:51:04.662Z,101227.47
2023-01-29T02:53:42.459Z,101218.94
2023-01-29T02:56:18.004Z,101222.25
2023-01-29T02:58:52.143Z,101218.94
2023-01-29T03:01:40.139Z,101214.00
2023-01-29T03:04:17.126Z,101212.91
2023-01-29T03:07:03.575Z,101207.97
2023-01-29T03:09:37.036Z,101167.91
2023-01-29T03:12:20.179Z,101197.00
2023-01-29T03:15:09.302Z,101190.19
2023-01-29T03:17:42.337Z,101187.56
2023-01-29T03:20:16.561Z,101191.72
2023-01-29T03:22:50.754Z,101173.22
2023-01-29T03:25:39.445Z,101161.31
2023-01-29T03:28:28.479Z,101150.28
2023-01-29T03:31:18.939Z,101140.69
2023-01-29T03:34:16.711Z,101157.81
2023-01-29T03:37:04.122Z,101139.66
2023-01-29T03:39:31.492Z,101141.41
2023-01-29T03:42:05.136Z,101137.19
2023-01-29T03:45:00.641Z,101136.41
2023-01-29T03:47:37.961Z,101125.44
2023-01-29T03:50:23.454Z,101128.09
2023-01-29T03:53:15.513Z,101131.50
2023-01-29T03:56:07.472Z,101125.59
2023-01-29T03:58:37.890Z,101116.31
2023-01-29T04:01:33.855Z,101119.72
2023-01-29T04:04:14.195Z,101119.09
2023-01-29T04:06:46.735Z,101127.53
2023-01-29T04:09:29.507Z,101132.75
2023-01-29T04:12:26.530Z,101110.38
2023-01-29T04:14:57.294Z,101107.84
2023-01-29T04:17:34.971Z,101104.34
2023-01-29T04:20:19.131Z,101108.94
2023-01-29T04:22:49.181Z,101107.38
2023-01-29T04:25:26.785Z,101110.84
2023-01-29T04:27:58.280Z,101110.06
2023-01-29T04:30:47.116Z,101092.44
2023-01-29T04:33:32.334Z,101091.56
2023-01-29T04:36:25.936Z,101091.25
2023-01-29T04:39:26.705Z,101071.41
2023-01-29T04:42:00.139Z,101076.56
2023-01-29T04:44:50.531Z,101074.97
2023-01-29T04:47:27.281Z,101080.06
2023-01-29T04:50:14.915Z,101073.25
2023-01-29T04:52:54.533Z,101074.25
2023-01-29T04:55:43.883Z,101069.19
2023-01-29T04:58:30.137Z,101079.50
2023-01-29T05:00:59.103Z,101059.03
2023-01-29T05:03:27.749Z,101063.53
2023-01-29T05:05:57.555Z,101037.84
2023-01-29T05:08:27.517Z,101060.06
2023-01-29T05:10:55.850Z,101044.66
2023-01-29T05:13:24.339Z,101046.41
2023-01-29T05:16:03.135Z,101048.16
2023-01-29T05:18:31.269Z,101041.34
2023-01-29T05:21:04.331Z,101044.84
2023-01-29T05:23:31.645Z,101046.47
2023-01-29T05:25:58.736Z,101048.16
2023-01-29T05:28:25.919Z,101050.63
2023-01-29T05:30:57.482Z,101046.41
2023-01-29T05:33:28.538Z,101050.69
2023-01-29T05:35:57.047Z,101046.41
2023-01-29T05:38:24.638Z,101049.00
2023-01-29T05:40:51.907Z,101044.66
2023-01-29T05:43:24.209Z,101045.56
2023-01-29T05:45:55.244Z,101055.00
2023-01-29T05:48:22.640Z,101055.84
2023-01-29T05:50:50.047Z,101048.16
2023-01-29T05:53:17.145Z,101066.06
2023-01-29T05:55:45.810Z,101028.53
2023-01-29T05:58:13.306Z,101059.03
2023-01-29T06:00:41.016Z,101060.78
2023-01-29T06:03:08.413Z,101074.25
2023-01-29T06:05:38.548Z,101083.56
2023-01-29T06:08:05.876Z,101085.06
2023-01-29T06:10:32.961Z,101078.31
2023-01-29T06:13:00.114Z,101083.09
2023-01-29T06:15:27.698Z,101095.94
2023-01-29T06:17:55.619Z,101083.09
2023-01-29T06:20:23.609Z,101093.56
2023-01-29T06:22:50.734Z,101102.75
2023-01-29T06:25:17.956Z,101098.63
2023-01-29T06:27:45.059Z,101105.44
2023-01-29T06:30:12.748Z,101101.41
2023-01-29T06:32:39.852Z,101098.78
2023-01-29T06:35:07.892Z,101091.97
2023-01-29T06:37:34.952Z,101098.94
2023-01-29T06:40:02.202Z,101094.56
2023-01-29T06:42:29.501Z,101105.78
2023-01-29T06:44:57.053Z,101112.59
2023-01-29T06:47:24.903Z,101105.94
2023-01-29T06:49:52.535Z,101093.84
2023-01-29T06:52:19.689Z,101085.75
2023-01-29T06:54:46.811Z,101082.25
2023-01-29T06:57:13.980Z,101085.75
2023-01-29T06:59:41.128Z,101082.41
2023-01-29T07:02:09.807Z,101068.94
2023-01-29T07:04:37.978Z,101070.66
2023-01-29T07:07:05.605Z,101060.38
2023-01-29T07:09:32.788Z,101053.13
2023-01-29T07:12:00.670Z,101054.00
2023-01-29T07:14:27.701Z,101063.50
2023-01-29T07:16:54.764Z,101071.25
2023-01-29T07:19:22.030Z,101074.59
2023-01-29T07:21:49.112Z,101079.69
2023-01-29T07:24:19.642Z,101060.03
2023-01-29T07:26:46.859Z,101071.44
2023-01-29T07:29:13.933Z,101069.81
2023-01-29T07:31:41.059Z,101063.16
2023-01-29T07:34:08.265Z,101053.13
2023-01-29T07:36:37.346Z,101062.53
2023-01-29T07:39:04.519Z,101047.19
2023-01-29T07:41:31.550Z,101050.88
2023-01-29T07:44:00.129Z,101054.31
2023-01-29T07:46:27.348Z,101053.75
2023-01-29T07:48:54.455Z,101057.97
2023-01-29T07:51:21.724Z,101056.19
2023-01-29T07:53:49.024Z,101075.00
2023-01-29T07:56:16.224Z,101068.97
2023-01-29T07:58:43.278Z,101085.81
2023-01-29T08:01:10.520Z,101072.97
2023-01-29T08:03:37.760Z,101076.38
2023-01-29T08:06:05.148Z,101077.38
2023-01-29T08:08:32.269Z,101072.44
2023-01-29T08:11:01.947Z,101070.72
2023-01-29T08:13:29.032Z,101066.72
2023-01-29T08:16:03.502Z,101059.09
2023-01-29T08:18:31.754Z,101048.22
2023-01-29T08:21:02.662Z,101061.28
2023-01-29T08:23:30.731Z,101059.84
2023-01-29T08:25:57.970Z,101049.00
2023-01-29T08:28:25.203Z,101048.22
2023-01-29T08:30:52.384Z,101036.44
2023-01-29T08:33:23.769Z,101049.50
2023-01-29T08:35:53.747Z,101038.59
2023-01-29T08:38:21.300Z,101033.53
2023-01-29T08:40:48.413Z,101031.94
2023-01-29T08:43:16.356Z,101021.81
2023-01-29T08:45:44.540Z,101011.44
2023-01-29T08:48:12.061Z,101017.44
2023-01-29T08:50:39.193Z,101004.59
2023-01-29T08:53:08.374Z,101014.19
2023-01-29T08:55:46.483Z,101008.22
2023-01-29T08:58:13.466Z,101009.09
2023-01-29T09:00:40.512Z,101005.69
2023-01-29T09:03:08.176Z,101010.13
2023-01-29T09:05:37.256Z,101010.91
2023-01-29T09:08:05.831Z,101017.88
2023-01-29T09:10:33.069Z,101015.34
2023-01-29T09:13:00.274Z,101032.34
2023-01-29T09:15:27.644Z,101025.66
2023-01-29T09:17:54.714Z,101026.50
2023-01-29T09:20:22.246Z,101025.78
2023-01-29T09:22:50.844Z,101024.84
2023-01-29T09:25:18.343Z,101016.94
2023-01-29T09:27:45.561Z,101029.16
2023-01-29T09:30:13.038Z,101037.84
2023-01-29T09:32:55.509Z,101037.78
2023-01-29T09:35:23.889Z,101036.09
2023-01-29T09:37:52.374Z,101027.81
2023-01-29T09:40:45.153Z,101031.16
2023-01-29T09:43:53.376Z,101015.22
2023-01-29T09:46:25.738Z,101007.72
2023-01-29T09:49:02.158Z,101011.09
2023-01-29T09:51:35.735Z,101005.09
2023-01-29T09:54:12.097Z,100999.16
2023-01-29T09:56:39.376Z,101011.09
2023-01-29T09:59:06.486Z,101005.28
2023-01-29T10:01:45.687Z,100996.75
2023-01-29T10:04:27.270Z,100995.16
2023-01-29T10:07:03.042Z,100992.59
2023-01-29T10:10:01.107Z,101006.41
2023-01-29T10:12:46.437Z,100997.94
2023-01-29T10:15:43.839Z,100996.22
2023-01-29T10:18:43.245Z,100977.41
2023-01-29T10:21:25.172Z,100981.09
2023-01-29T10:24:02.387Z,100969.31
2023-01-29T10:26:31.574Z,100960.59
2023-01-29T10:29:00.722Z,100953.09
2023-01-29T10:31:33.425Z,100949.91
2023-01-29T10:34:07.715Z,100948.22
2023-01-29T10:36:43.174Z,100942.91
2023-01-29T10:39:16.548Z,100938.53
2023-01-29T10:42:22.174Z,100937.19
2023-01-29T10:45:10.343Z,100935.28
2023-01-29T10:48:00.119Z,100930.19
2023-01-29T10:50:57.856Z,100932.88
2023-01-29T10:53:33.997Z,100928.59
2023-01-29T10:56:22.758Z,100930.19
2023-01-29T10:59:24.983Z,100914.00
2023-01-29T11:01:52.177Z,100913.38
2023-01-29T11:04:19.674Z,100906.47
2023-01-29T11:06:46.982Z,100911.84
2023-01-29T11:09:39.369Z,100866.88
2023-01-29T11:12:11.098Z,100894.69
2023-01-29T11:14:44.378Z,100889.72
2023-01-29T11:17:23.563Z,100874.34
2023-01-29T11:19:52.311Z,100870.84
2023-01-29T11:22:27.364Z,100883.78
2023-01-29T11:25:18.185Z,100879.56
2023-01-29T11:27:49.553Z,100885.66
2023-01-29T11:30:29.204Z,100893.09
2023-01-29T11:33:06.804Z,100900.19
2023-01-29T11:35:35.673Z,100889.91
2023-01-29T11:38:23.895Z,100876.34
2023-01-29T11:40:51.821Z,100852.38
2023-01-29T11:43:27.916Z,100867.91
2023-01-29T11:46:07.445Z,100864.44
2023-01-29T11:48:58.954Z,100857.72
2023-01-29T11:51:30.237Z,100843.59
2023-01-29T11:54:00.709Z,100834.38
2023-01-29T11:56:32.990Z,100827.56
2023-01-29T11:59:04.666Z,100834.38
2023-01-29T12:01:41.415Z,100832.78
2023-01-29T12:04:39.393Z,100822.59
2023-01-29T12:07:14.473Z,100818.44
2023-01-29T12:09:42.017Z,100828.78
2023-01-29T12:12:40.170Z,100825.50
2023-01-29T12:15:20.025Z,100828.75
2023-01-29T12:17:58.436Z,100800.00
2023-01-29T12:20:36.198Z,100832.78
2023-01-29T12:23:26.404Z,100827.56
2023-01-29T12:26:19.608Z,100831.72
2023-01-29T12:29:13.072Z,100818.03
2023-01-29T12:31:48.996Z,100805.22
2023-01-29T12:34:42.326Z,100804.47
2023-01-29T12:37:25.297Z,100797.59
2023-01-29T12:39:52.740Z,100795.03
2023-01-29T12:42:22.781Z,100790.06
2023-01-29T12:45:01.350Z,100778.03
2023-01-29T12:47:44.076Z,100786.59
2023-01-29T12:50:33.319Z,100788.34
2023-01-29T12:53:25.461Z,100790.78
2023-01-29T12:56:03.130Z,100783.13
2023-01-29T12:58:44.361Z,100790.81
2023-01-29T13:01:27.780Z,100796.75
2023-01-29T13:04:07.086Z,100793.44
2023-01-29T13:06:41.824Z,100783.69
2023-01-29T13:09:19.771Z,100798.41
2023-01-29T13:12:00.834Z,100777.94
2023-01-29T13:14:51.515Z,100788.22
2023-01-29T13:17:24.553Z,100770.41
2023-01-29T13:19:54.502Z,100759.41
2023-01-29T13:22:35.411Z,100755.38
2023-01-29T13:25:05.427Z,100752.75
2023-01-29T13:27:35.303Z,100764.63
2023-01-29T13:30:03.051Z,100749.34
2023-01-29T13:32:32.935Z,100755.25
2023-01-29T13:35:15.441Z,100762.16
2023-01-29T13:37:49.328Z,100743.22
2023-01-29T13:40:29.299Z,100754.50
2023-01-29T13:42:59.937Z,100753.69
2023-01-29T13:45:35.406Z,100754.56
2023-01-29T13:48:27.170Z,100739.28
2023-01-29T13:50:57.222Z,100737.69
2023-01-29T13:53:38.373Z,100741.94
2023-01-29T13:56:33.539Z,100733.53
2023-01-29T13:59:03.114Z,100729.22
2023-01-29T14:01:48.394Z,100729.09
2023-01-29T14:04:25.788Z,100725.78
2023-01-29T14:06:54.974Z,100718.94
2023-01-29T14:09:37.284Z,100729.97
2023-01-29T14:12:25.136Z,100723.16
2023-01-29T14:15:04.511Z,100715.31
2023-01-29T14:17:32.114Z,100716.97
2023-01-29T14:20:17.396Z,100735.69
2023-01-29T14:22:44.747Z,100733.28
2023-01-29T14:25:19.946Z,100725.50
2023-01-29T14:27:48.831Z,100715.22
2023-01-29T14:30:19.045Z,100710.25
2023-01-29T14:32:50.055Z,100724.72
2023-01-29T14:35:25.765Z,100710.13
2023-01-29T14:37:59.676Z,100728.13
2023-01-29T14:40:29.975Z,100727.38
2023-01-29T14:43:02.508Z,100723.22
2023-01-29T14:45:42.081Z,100720.56
2023-01-29T14:48:12.005Z,100732.47
2023-01-29T14:50:51.501Z,100721.25
2023-01-29T14:53:31.877Z,100719.50
2023-01-29T14:56:10.660Z,100727.25
2023-01-29T14:58:43.966Z,100727.16
2023-01-29T15:01:26.045Z,100709.06
2023-01-29T15:04:00.595Z,100715.09
2023-01-29T15:07:09.267Z,100704.91
2023-01-29T15:09:55.646Z,100708.28
2023-01-29T15:12:33.516Z,100700.59
2023-01-29T15:15:08.301Z,100705.75
2023-01-29T15:17:48.251Z,100698.00
2023-01-29T15:20:42.160Z,100698.91
2023-01-29T15:23:32.383Z,100694.63
2023-01-29T15:26:01.876Z,100689.53
2023-01-29T15:28:33.320Z,100684.56
2023-01-29T15:31:08.031Z,100687.06
2023-01-29T15:33:38.761Z,100687.22
2023-01-29T15:36:08.050Z,100686.44
2023-01-29T15:38:35.854Z,100682.97
2023-01-29T15:41:16.374Z,100665.16
2023-01-29T15:43:46.336Z,100677.88
2023-01-29T15:46:23.293Z,100669.41
2023-01-29T15:48:51.812Z,100677.13
2023-01-29T15:51:25.500Z,100677.97
2023-01-29T15:53:58.673Z,100677.97
2023-01-29T15:56:33.725Z,100669.53
2023-01-29T15:59:07.318Z,100661.84
2023-01-29T16:01:36.472Z,100628.38
2023-01-29T16:04:04.490Z,100655.91
2023-01-29T16:06:38.105Z,100648.94
2023-01-29T16:09:06.420Z,100640.56
2023-01-29T16:11:35.890Z,100643.84
2023-01-29T16:14:05.084Z,100654.25
2023-01-29T16:16:32.576Z,100653.28
2023-01-29T16:19:01.268Z,100637.25
2023-01-29T16:21:49.026Z,100642.34
2023-01-29T16:24:23.481Z,100633.91
2023-01-29T16:26:51.905Z,100638.09
2023-01-29T16:29:24.910Z,100631.25
2023-01-29T16:31:55.186Z,100626.97
2023-01-29T16:34:31.066Z,100632.06
2023-01-29T16:36:59.130Z,100623.59
2023-01-29T16:39:34.023Z,100618.63
2023-01-29T16:42:21.134Z,100615.94
2023-01-29T16:44:54.652Z,100607.56
2023-01-29T16:47:33.200Z,100620.28
2023-01-29T16:50:02.393Z,100613.44
2023-01-29T16:52:34.500Z,100615.97
2023-01-29T16:55:16.732Z,100613.53
2023-01-29T16:57:47.093Z,100573.56
2023-01-29T17:00:19.179Z,100615.97
2023-01-29T17:02:46.304Z,100609.28
2023-01-29T17:05:31.674Z,100606.63
2023-01-29T17:08:00.433Z,100598.91
2023-01-29T17:10:29.373Z,100598.16
2023-01-29T17:12:58.213Z,100587.97
2023-01-29T17:15:48.654Z,100591.47
2023-01-29T17:18:21.627Z,100593.25
2023-01-29T17:20:49.488Z,100559.31
2023-01-29T17:23:16.950Z,100587.19
2023-01-29T17:25:44.775Z,100600.06
2023-01-29T17:28:14.318Z,100588.22
2023-01-29T17:30:41.624Z,100582.31
2023-01-29T17:33:14.951Z,100582.34
2023-01-29T17:35:43.484Z,100578.16
2023-01-29T17:38:25.546Z,100571.31
2023-01-29T17:41:08.465Z,100565.25
2023-01-29T17:43:35.616Z,100552.47
2023-01-29T17:46:03.262Z,100566.34
2023-01-29T17:48:31.430Z,100558.66
2023-01-29T17:51:04.801Z,100561.25
2023-01-29T17:53:44.899Z,100554.44
2023-01-29T17:56:18.589Z,100541.53
2023-01-29T17:58:45.776Z,100551.19
2023-01-29T18:01:13.966Z,100545.97
2023-01-29T18:03:41.130Z,100549.56
2023-01-29T18:06:10.093Z,100541.88
2023-01-29T18:08:39.416Z,100524.00
2023-01-29T18:11:06.534Z,100541.13
2023-01-29T18:13:36.333Z,100531.72
2023-01-29T18:16:03.815Z,100538.69
2023-01-29T18:18:30.966Z,100546.31
2023-01-29T18:20:58.147Z,100542.94
2023-01-29T18:23:25.296Z,100525.75
2023-01-29T18:25:53.022Z,100532.75
2023-01-29T18:28:20.239Z,100524.19
2023-01-29T18:30:47.780Z,100520.66
2023-01-29T18:33:16.660Z,100508.81
2023-01-29T18:35:45.446Z,100508.06
2023-01-29T18:38:12.640Z,100495.25
2023-01-29T18:40:39.979Z,100504.66
2023-01-29T18:43:10.342Z,100500.28
2023-01-29T18:45:37.466Z,100495.41
2023-01-29T18:48:05.378Z,100490.31
2023-01-29T18:50:33.163Z,100483.38
2023-01-29T18:53:00.847Z,100478.38
2023-01-29T18:55:27.972Z,100478.28
2023-01-29T18:58:27.339Z,100466.28
2023-01-29T19:00:43.205Z,100475.72
2023-01-29T19:03:11.432Z,100469.69
2023-01-29T19:05:38.576Z,100462.91
2023-01-29T19:08:06.167Z,100452.84
2023-01-29T19:10:34.601Z,100462.13
2023-01-29T19:13:01.931Z,100455.34
2023-01-29T19:15:29.036Z,100458.03
2023-01-29T19:17:56.637Z,100452.13
2023-01-29T19:20:23.802Z,100455.47
2023-01-29T19:22:53.653Z,100457.06
2023-01-29T19:25:21.146Z,100449.50
2023-01-29T19:27:48.478Z,100449.50
2023-01-29T19:30:15.885Z,100444.50
2023-01-29T19:32:43.299Z,100437.66
2023-01-29T19:35:12.670Z,100427.09
2023-01-29T19:37:39.858Z,100434.13
2023-01-29T19:40:08.427Z,100428.91
2023-01-29T19:42:37.620Z,100429.88
2023-01-29T19:45:05.830Z,100423.94
2023-01-29T19:47:33.922Z,100415.38
2023-01-29T19:50:01.164Z,100417.16
2023-01-29T19:52:51.523Z,100413.75
2023-01-29T19:55:20.908Z,100411.22
2023-01-29T19:57:49.143Z,100412.00
2023-01-29T20:00:17.700Z,100408.66
2023-01-29T20:02:44.867Z,100396.66
2023-01-29T20:05:13.234Z,100401.84
2023-01-29T20:07:43.080Z,100390.03
2023-01-29T20:10:11.700Z,100381.56
2023-01-29T20:12:38.885Z,100385.03
2023-01-29T20:15:07.542Z,100388.41
2023-01-29T20:17:34.675Z,100369.56
2023-01-29T20:20:02.536Z,100329.97
2023-01-29T20:22:30.037Z,100369.56
2023-01-29T20:24:57.542Z,100357.66
2023-01-29T20:27:27.520Z,100367.72
2023-01-29T20:29:54.521Z,100331.72
2023-01-29T20:32:21.704Z,100358.53
2023-01-29T20:34:52.251Z,100355.22
2023-01-29T20:37:19.841Z,100350.84
2023-01-29T20:39:47.583Z,100345.03
2023-01-29T20:42:14.780Z,100337.28
2023-01-29T20:44:42.329Z,100342.50
2023-01-29T20:47:09.538Z,100328.03
2023-01-29T20:49:38.802Z,100325.44
2023-01-29T20:52:07.814Z,100325.47
2023-01-29T20:54:35.133Z,100315.13
2023-01-29T20:57:02.264Z,100317.91
2023-01-29T20:59:29.537Z,100310.31
2023-01-29T21:01:56.988Z,100306.88
2023-01-29T21:04:24.139Z,100300.13
2023-01-29T21:06:51.426Z,100287.28
2023-01-29T21:09:18.473Z,100288.16
2023-01-29T21:11:45.677Z,100279.66
2023-01-29T21:14:12.898Z,100277.13
2023-01-29T21:16:40.623Z,100283.03
2023-01-29T21:19:07.793Z,100270.25
2023-01-29T21:21:34.938Z,100264.31
2023-01-29T21:24:01.980Z,100269.41
2023-01-29T21:26:29.134Z,100260.94
2023-01-29T21:28:56.423Z,100231.66
2023-01-29T21:31:23.649Z,100247.41
2023-01-29T21:33:50.814Z,100223.31
2023-01-29T21:36:17.976Z,100233.69
2023-01-29T21:38:45.281Z,100240.56
2023-01-29T21:41:12.431Z,100237.16
2023-01-29T21:43:40.052Z,100238.88
2023-01-29T21:46:12.249Z,100231.22
2023-01-29T21:48:40.450Z,100227.00
2023-01-29T21:51:08.041Z,100235.69
2023-01-29T21:53:35.414Z,100231.41
2023-01-29T21:56:04.744Z,100222.06
2023-01-29T21:58:32.423Z,100215.97
2023-01-29T22:01:17.934Z,100216.88
2023-01-29T22:03:47.491Z,100211.69
2023-01-29T22:06:15.512Z,100210.03
2023-01-29T22:08:42.831Z,100201.59
2023-01-29T22:11:12.453Z,100195.75
2023-01-29T22:13:39.669Z,100186.34
2023-01-29T22:16:07.346Z,100174.53
2023-01-29T22:18:34.812Z,100178.72
2023-01-29T22:21:03.121Z,100173.63
2023-01-29T22:23:32.052Z,100168.53
2023-01-29T22:26:06.491Z,100148.78
2023-01-29T22:28:33.603Z,100155.84
2023-01-29T22:31:02.335Z,100144.78
2023-01-29T22:33:29.531Z,100132.91
2023-01-29T22:35:57.390Z,100126.13
2023-01-29T22:38:24.636Z,100128.59
2023-01-29T22:40:53.168Z,100118.34
2023-01-29T22:43:21.132Z,100115.00
2023-01-29T22:45:48.642Z,100119.19
2023-01-29T22:48:15.916Z,100099.53
2023-01-29T22:50:43.017Z,100099.66
2023-01-29T22:53:10.236Z,100101.38
2023-01-29T22:55:37.285Z,100091.19
2023-01-29T22:58:04.372Z,100082.72
2023-01-29T23:00:31.416Z,100075.91
2023-01-29T23:02:58.509Z,100080.94
2023-01-29T23:05:25.718Z,100065.56
2023-01-29T23:07:52.904Z,100057.19
2023-01-29T23:10:20.195Z,100056.34
2023-01-29T23:12:47.358Z,100049.69
2023-01-29T23:15:14.529Z,100041.94
2023-01-29T23:17:41.661Z,100040.28
2023-01-29T23:20:10.968Z,100018.31
2023-01-29T23:22:38.511Z,100015.69
2023-01-29T23:25:06.252Z,100009.75
2023-01-29T23:27:33.272Z,100006.34
2023-01-29T23:30:00.365Z,100001.28
2023-01-29T23:32:27.484Z,99967.00
2023-01-29T23:34:54.591Z,99989.41
2023-01-29T23:37:21.620Z,99997.03
2023-01-29T23:39:49.361Z,99980.09
2023-01-29T23:42:16.413Z,99969.06
2023-01-29T23:44:44.323Z,99963.97
2023-01-29T23:47:11.646Z,99955.50
2023-01-29T23:49:38.869Z,99931.53
2023-01-29T23:52:06.331Z,99953.78
2023-01-29T23:54:33.436Z,99941.97
2023-01-29T23:57:00.445Z,99943.69
2023-01-29T23:59:29.081Z,99941.97
